sensor_id;sensor_type;location;lat;lon;timestamp;temperature;humidity
19892;DHT22;10108;50.142;8.724;2022-12-24T00:02:22;10.20;50.30
19892;DHT22;10108;50.142;8.724;2022-12-24T00:04:48;10.20;36.20
19892;DHT22;10108;50.142;8.724;2022-12-24T00:07:14;10.20;42.40
19892;DHT22;10108;50.142;8.724;2022-12-24T00:09:40;10.10;67.80
19892;DHT22;10108;50.142;8.724;2022-12-24T00:12:07;10.10;85.10
19892;DHT22;10108;50.142;8.724;2022-12-24T00:14:33;10.10;93.10
19892;DHT22;10108;50.142;8.724;2022-12-24T00:16:59;10.10;99.90
19892;DHT22;10108;50.142;8.724;2022-12-24T00:19:25;10.10;99.90
19892;DHT22;10108;50.142;8.724;2022-12-24T00:21:51;10.10;99.90
19892;DHT22;10108;50.142;8.724;2022-12-24T00:24:17;10.10;99.90
19892;DHT22;10108;50.142;8.724;2022-12-24T00:26:43;10.10;99.90
19892;DHT22;10108;50.142;8.724;2022-12-24T00:29:10;10.10;99.90
19892;DHT22;10108;50.142;8.724;2022-12-24T00:31:36;10.10;99.90
19892;DHT22;10108;50.142;8.724;2022-12-24T00:34:03;10.10;99.90
19892;DHT22;10108;50.142;8.724;2022-12-24T00:36:29;10.10;99.90
19892;DHT22;10108;50.142;8.724;2022-12-24T00:38:55;10.10;99.90
19892;DHT22;10108;50.142;8.724;2022-12-24T00:41:24;10.10;99.90
19892;DHT22;10108;50.142;8.724;2022-12-24T00:43:52;10.10;99.90
19892;DHT22;10108;50.142;8.724;2022-12-24T00:46:19;10.10;99.90
19892;DHT22;10108;50.142;8.724;2022-12-24T00:48:46;10.10;99.90
19892;DHT22;10108;50.142;8.724;2022-12-24T00:51:12;10.10;99.90
19892;DHT22;10108;50.142;8.724;2022-12-24T00:53:38;10.10;99.90
19892;DHT22;10108;50.142;8.724;2022-12-24T00:56:05;10.00;99.90
19892;DHT22;10108;50.142;8.724;2022-12-24T00:58:31;10.00;99.90
19892;DHT22;10108;50.142;8.724;2022-12-24T01:00:58;10.00;99.90
19892;DHT22;10108;50.142;8.724;2022-12-24T01:03:24;10.00;99.90
19892;DHT22;10108;50.142;8.724;2022-12-24T01:06:07;10.00;99.90
19892;DHT22;10108;50.142;8.724;2022-12-24T01:08:34;10.00;99.90
19892;DHT22;10108;50.142;8.724;2022-12-24T01:11:01;9.90;99.90
19892;DHT22;10108;50.142;8.724;2022-12-24T01:13:28;9.90;99.90
19892;DHT22;10108;50.142;8.724;2022-12-24T01:15:54;9.90;99.90
19892;DHT22;10108;50.142;8.724;2022-12-24T01:18:20;9.90;99.90
19892;DHT22;10108;50.142;8.724;2022-12-24T01:20:58;9.90;99.90
19892;DHT22;10108;50.142;8.724;2022-12-24T01:23:25;9.90;99.90
19892;DHT22;10108;50.142;8.724;2022-12-24T01:25:51;9.90;99.90
19892;DHT22;10108;50.142;8.724;2022-12-24T01:28:18;9.90;99.90
19892;DHT22;10108;50.142;8.724;2022-12-24T01:30:45;9.90;99.90
19892;DHT22;10108;50.142;8.724;2022-12-24T01:33:11;9.90;99.90
19892;DHT22;10108;50.142;8.724;2022-12-24T01:35:39;9.90;99.90
19892;DHT22;10108;50.142;8.724;2022-12-24T01:38:05;10.00;99.90
19892;DHT22;10108;50.142;8.724;2022-12-24T01:40:31;10.00;99.90
19892;DHT22;10108;50.142;8.724;2022-12-24T01:43:19;10.00;99.90
19892;DHT22;10108;50.142;8.724;2022-12-24T01:48:43;10.10;99.90
19892;DHT22;10108;50.142;8.724;2022-12-24T01:51:41;10.10;51.90
19892;DHT22;10108;50.142;8.724;2022-12-24T01:54:16;10.10;37.30
19892;DHT22;10108;50.142;8.724;2022-12-24T01:56:47;10.10;27.30
19892;DHT22;10108;50.142;8.724;2022-12-24T01:59:16;10.10;27.20
19892;DHT22;10108;50.142;8.724;2022-12-24T02:01:45;10.10;2.80
19892;DHT22;10108;50.142;8.724;2022-12-24T02:04:18;10.00;3.80
19892;DHT22;10108;50.142;8.724;2022-12-24T02:06:48;10.00;1.00
19892;DHT22;10108;50.142;8.724;2022-12-24T02:09:14;10.00;1.00
19892;DHT22;10108;50.142;8.724;2022-12-24T02:11:41;10.00;1.00
19892;DHT22;10108;50.142;8.724;2022-12-24T02:14:10;10.00;51.90
19892;DHT22;10108;50.142;8.724;2022-12-24T02:17:16;10.00;99.60
19892;DHT22;10108;50.142;8.724;2022-12-24T02:20:07;10.00;56.10
19892;DHT22;10108;50.142;8.724;2022-12-24T02:28:15;9.90;1.00
19892;DHT22;10108;50.142;8.724;2022-12-24T02:30:52;9.90;3.40
19892;DHT22;10108;50.142;8.724;2022-12-24T02:33:28;10.00;86.10
19892;DHT22;10108;50.142;8.724;2022-12-24T02:36:01;10.00;99.90
19892;DHT22;10108;50.142;8.724;2022-12-24T02:38:36;10.00;99.90
19892;DHT22;10108;50.142;8.724;2022-12-24T02:41:10;9.90;99.90
19892;DHT22;10108;50.142;8.724;2022-12-24T02:43:41;9.90;94.40
19892;DHT22;10108;50.142;8.724;2022-12-24T02:46:24;9.90;67.90
19892;DHT22;10108;50.142;8.724;2022-12-24T02:48:50;9.90;40.40
19892;DHT22;10108;50.142;8.724;2022-12-24T02:51:22;9.90;12.40
19892;DHT22;10108;50.142;8.724;2022-12-24T02:53:49;9.90;1.00
19892;DHT22;10108;50.142;8.724;2022-12-24T03:07:17;10.00;28.90
19892;DHT22;10108;50.142;8.724;2022-12-24T03:09:59;10.00;56.30
19892;DHT22;10108;50.142;8.724;2022-12-24T03:12:41;10.00;99.90
19892;DHT22;10108;50.142;8.724;2022-12-24T03:15:11;10.10;99.90
19892;DHT22;10108;50.142;8.724;2022-12-24T03:17:40;10.10;99.90
19892;DHT22;10108;50.142;8.724;2022-12-24T03:20:09;10.10;68.90
19892;DHT22;10108;50.142;8.724;2022-12-24T03:22:36;10.10;72.50
19892;DHT22;10108;50.142;8.724;2022-12-24T03:25:02;10.10;99.90
19892;DHT22;10108;50.142;8.724;2022-12-24T03:27:30;10.10;65.20
19892;DHT22;10108;50.142;8.724;2022-12-24T03:29:57;10.10;9.00
19892;DHT22;10108;50.142;8.724;2022-12-24T03:32:27;10.00;1.00
19892;DHT22;10108;50.142;8.724;2022-12-24T03:34:54;10.00;1.00
19892;DHT22;10108;50.142;8.724;2022-12-24T03:37:20;10.00;1.00
19892;DHT22;10108;50.142;8.724;2022-12-24T03:39:47;10.00;1.00
19892;DHT22;10108;50.142;8.724;2022-12-24T03:42:13;10.00;33.90
19892;DHT22;10108;50.142;8.724;2022-12-24T03:44:39;10.00;99.80
19892;DHT22;10108;50.142;8.724;2022-12-24T03:47:05;10.00;99.90
19892;DHT22;10108;50.142;8.724;2022-12-24T03:49:31;10.00;99.90
19892;DHT22;10108;50.142;8.724;2022-12-24T03:51:57;10.10;99.90
19892;DHT22;10108;50.142;8.724;2022-12-24T03:54:23;10.10;99.90
19892;DHT22;10108;50.142;8.724;2022-12-24T03:56:50;10.20;99.90
19892;DHT22;10108;50.142;8.724;2022-12-24T03:59:16;10.20;99.90
19892;DHT22;10108;50.142;8.724;2022-12-24T04:01:42;10.20;99.90
19892;DHT22;10108;50.142;8.724;2022-12-24T04:04:08;10.20;99.90
19892;DHT22;10108;50.142;8.724;2022-12-24T04:06:34;10.20;99.90
19892;DHT22;10108;50.142;8.724;2022-12-24T04:09:00;10.10;99.90
19892;DHT22;10108;50.142;8.724;2022-12-24T04:11:30;10.10;99.90
19892;DHT22;10108;50.142;8.724;2022-12-24T04:13:57;10.20;99.90
19892;DHT22;10108;50.142;8.724;2022-12-24T04:16:23;10.20;99.90
19892;DHT22;10108;50.142;8.724;2022-12-24T04:18:49;10.20;99.90
19892;DHT22;10108;50.142;8.724;2022-12-24T04:21:15;10.20;99.90
19892;DHT22;10108;50.142;8.724;2022-12-24T04:23:42;10.20;99.90
19892;DHT22;10108;50.142;8.724;2022-12-24T04:26:10;10.20;99.90
19892;DHT22;10108;50.142;8.724;2022-12-24T04:28:37;10.20;99.90
19892;DHT22;10108;50.142;8.724;2022-12-24T04:31:14;10.20;64.00
19892;DHT22;10108;50.142;8.724;2022-12-24T04:33:41;10.20;58.30
19892;DHT22;10108;50.142;8.724;2022-12-24T04:36:09;10.20;99.90
19892;DHT22;10108;50.142;8.724;2022-12-24T04:38:36;10.20;84.80
19892;DHT22;10108;50.142;8.724;2022-12-24T04:41:17;10.20;25.40
19892;DHT22;10108;50.142;8.724;2022-12-24T04:43:44;10.20;99.90
19892;DHT22;10108;50.142;8.724;2022-12-24T04:46:13;10.20;99.90
19892;DHT22;10108;50.142;8.724;2022-12-24T04:48:47;10.20;85.90
19892;DHT22;10108;50.142;8.724;2022-12-24T04:51:14;10.20;99.90
19892;DHT22;10108;50.142;8.724;2022-12-24T04:53:41;10.10;97.00
19892;DHT22;10108;50.142;8.724;2022-12-24T04:56:14;10.10;52.40
19892;DHT22;10108;50.142;8.724;2022-12-24T04:58:41;10.10;45.60
19892;DHT22;10108;50.142;8.724;2022-12-24T05:01:14;10.10;99.90
19892;DHT22;10108;50.142;8.724;2022-12-24T05:03:41;10.10;99.90
19892;DHT22;10108;50.142;8.724;2022-12-24T05:06:12;10.10;7.20
19892;DHT22;10108;50.142;8.724;2022-12-24T05:08:38;10.10;1.00
19892;DHT22;10108;50.142;8.724;2022-12-24T05:11:05;10.10;1.00
19892;DHT22;10108;50.142;8.724;2022-12-24T05:13:31;10.10;1.00
19892;DHT22;10108;50.142;8.724;2022-12-24T05:15:58;10.10;20.10
19892;DHT22;10108;50.142;8.724;2022-12-24T05:18:24;10.00;18.50
19892;DHT22;10108;50.142;8.724;2022-12-24T05:20:51;10.00;42.60
19892;DHT22;10108;50.142;8.724;2022-12-24T05:23:20;10.00;91.50
19892;DHT22;10108;50.142;8.724;2022-12-24T05:26:16;10.00;99.90
19892;DHT22;10108;50.142;8.724;2022-12-24T05:28:54;10.00;99.90
19892;DHT22;10108;50.142;8.724;2022-12-24T05:31:21;9.90;99.90
19892;DHT22;10108;50.142;8.724;2022-12-24T05:33:48;9.90;88.20
19892;DHT22;10108;50.142;8.724;2022-12-24T05:36:14;9.90;99.90
19892;DHT22;10108;50.142;8.724;2022-12-24T05:38:41;9.90;99.90
19892;DHT22;10108;50.142;8.724;2022-12-24T05:41:07;9.90;99.90
19892;DHT22;10108;50.142;8.724;2022-12-24T05:43:37;9.80;99.90
19892;DHT22;10108;50.142;8.724;2022-12-24T05:46:06;9.80;99.90
19892;DHT22;10108;50.142;8.724;2022-12-24T05:48:32;9.80;99.90
19892;DHT22;10108;50.142;8.724;2022-12-24T05:50:58;9.80;99.90
19892;DHT22;10108;50.142;8.724;2022-12-24T05:53:24;9.80;99.90
19892;DHT22;10108;50.142;8.724;2022-12-24T05:55:51;9.80;99.90
19892;DHT22;10108;50.142;8.724;2022-12-24T05:58:17;9.70;99.90
19892;DHT22;10108;50.142;8.724;2022-12-24T06:00:43;9.80;99.90
19892;DHT22;10108;50.142;8.724;2022-12-24T06:03:09;9.80;99.90
19892;DHT22;10108;50.142;8.724;2022-12-24T06:05:35;9.90;99.90
19892;DHT22;10108;50.142;8.724;2022-12-24T06:08:02;10.00;99.90
19892;DHT22;10108;50.142;8.724;2022-12-24T06:10:28;10.00;99.90
19892;DHT22;10108;50.142;8.724;2022-12-24T06:12:54;10.00;99.90
19892;DHT22;10108;50.142;8.724;2022-12-24T06:15:20;10.00;99.90
19892;DHT22;10108;50.142;8.724;2022-12-24T06:17:46;10.10;99.90
19892;DHT22;10108;50.142;8.724;2022-12-24T06:20:12;10.00;99.90
19892;DHT22;10108;50.142;8.724;2022-12-24T06:22:39;10.00;99.90
19892;DHT22;10108;50.142;8.724;2022-12-24T06:25:05;10.00;99.90
19892;DHT22;10108;50.142;8.724;2022-12-24T06:27:31;9.90;99.90
19892;DHT22;10108;50.142;8.724;2022-12-24T06:29:57;9.90;99.90
19892;DHT22;10108;50.142;8.724;2022-12-24T06:32:23;10.00;99.90
19892;DHT22;10108;50.142;8.724;2022-12-24T06:34:49;10.00;99.90
19892;DHT22;10108;50.142;8.724;2022-12-24T06:37:15;10.00;99.90
19892;DHT22;10108;50.142;8.724;2022-12-24T06:39:46;10.00;99.90
19892;DHT22;10108;50.142;8.724;2022-12-24T06:42:13;10.00;99.90
19892;DHT22;10108;50.142;8.724;2022-12-24T06:44:39;10.00;99.90
19892;DHT22;10108;50.142;8.724;2022-12-24T06:47:05;10.00;99.90
19892;DHT22;10108;50.142;8.724;2022-12-24T06:49:31;10.00;99.90
19892;DHT22;10108;50.142;8.724;2022-12-24T06:51:57;9.90;99.90
19892;DHT22;10108;50.142;8.724;2022-12-24T06:54:23;9.90;99.90
19892;DHT22;10108;50.142;8.724;2022-12-24T06:56:49;9.90;99.90
19892;DHT22;10108;50.142;8.724;2022-12-24T06:59:15;9.90;99.90
19892;DHT22;10108;50.142;8.724;2022-12-24T07:01:41;9.90;99.90
19892;DHT22;10108;50.142;8.724;2022-12-24T07:04:07;9.90;62.30
19892;DHT22;10108;50.142;8.724;2022-12-24T07:06:34;9.90;50.20
19892;DHT22;10108;50.142;8.724;2022-12-24T07:09:00;9.90;43.00
19892;DHT22;10108;50.142;8.724;2022-12-24T07:11:26;9.90;36.30
19892;DHT22;10108;50.142;8.724;2022-12-24T07:13:52;9.90;12.20
19892;DHT22;10108;50.142;8.724;2022-12-24T07:16:18;9.90;16.00
19892;DHT22;10108;50.142;8.724;2022-12-24T07:18:44;10.00;74.60
19892;DHT22;10108;50.142;8.724;2022-12-24T07:21:10;9.90;65.00
19892;DHT22;10108;50.142;8.724;2022-12-24T07:23:36;10.00;98.50
19892;DHT22;10108;50.142;8.724;2022-12-24T07:26:04;10.00;93.70
19892;DHT22;10108;50.142;8.724;2022-12-24T07:28:30;10.00;59.40
19892;DHT22;10108;50.142;8.724;2022-12-24T07:30:57;10.00;60.40
19892;DHT22;10108;50.142;8.724;2022-12-24T07:33:24;10.00;85.30
19892;DHT22;10108;50.142;8.724;2022-12-24T07:36:05;10.00;99.90
19892;DHT22;10108;50.142;8.724;2022-12-24T07:38:33;10.10;99.90
19892;DHT22;10108;50.142;8.724;2022-12-24T07:41:00;10.00;99.90
19892;DHT22;10108;50.142;8.724;2022-12-24T07:43:26;10.00;99.90
19892;DHT22;10108;50.142;8.724;2022-12-24T07:45:56;10.10;99.90
19892;DHT22;10108;50.142;8.724;2022-12-24T07:48:24;10.10;99.90
19892;DHT22;10108;50.142;8.724;2022-12-24T07:50:51;10.10;99.90
19892;DHT22;10108;50.142;8.724;2022-12-24T07:53:17;10.20;99.90
19892;DHT22;10108;50.142;8.724;2022-12-24T07:55:44;10.10;99.90
19892;DHT22;10108;50.142;8.724;2022-12-24T07:58:10;10.10;99.90
19892;DHT22;10108;50.142;8.724;2022-12-24T08:00:36;10.10;97.30
19892;DHT22;10108;50.142;8.724;2022-12-24T08:03:02;10.10;99.90
19892;DHT22;10108;50.142;8.724;2022-12-24T08:05:33;10.10;99.90
19892;DHT22;10108;50.142;8.724;2022-12-24T08:07:59;10.00;99.90
19892;DHT22;10108;50.142;8.724;2022-12-24T08:10:26;10.00;99.90
19892;DHT22;10108;50.142;8.724;2022-12-24T08:12:52;10.00;99.90
19892;DHT22;10108;50.142;8.724;2022-12-24T08:15:18;10.00;99.90
19892;DHT22;10108;50.142;8.724;2022-12-24T08:17:44;10.00;99.90
19892;DHT22;10108;50.142;8.724;2022-12-24T08:20:11;10.00;99.90
19892;DHT22;10108;50.142;8.724;2022-12-24T08:22:37;10.00;99.90
19892;DHT22;10108;50.142;8.724;2022-12-24T08:25:03;10.00;99.90
19892;DHT22;10108;50.142;8.724;2022-12-24T08:27:29;10.00;99.90
19892;DHT22;10108;50.142;8.724;2022-12-24T08:29:55;10.00;99.90
19892;DHT22;10108;50.142;8.724;2022-12-24T08:32:21;10.00;99.90
19892;DHT22;10108;50.142;8.724;2022-12-24T08:34:47;10.10;99.90
19892;DHT22;10108;50.142;8.724;2022-12-24T08:37:13;10.10;99.90
19892;DHT22;10108;50.142;8.724;2022-12-24T08:39:39;10.10;99.90
19892;DHT22;10108;50.142;8.724;2022-12-24T08:42:05;10.10;99.90
19892;DHT22;10108;50.142;8.724;2022-12-24T08:44:32;10.20;99.90
19892;DHT22;10108;50.142;8.724;2022-12-24T08:46:58;10.20;99.90
19892;DHT22;10108;50.142;8.724;2022-12-24T08:49:24;10.30;99.90
19892;DHT22;10108;50.142;8.724;2022-12-24T08:51:50;10.30;99.90
19892;DHT22;10108;50.142;8.724;2022-12-24T08:54:17;10.30;99.90
19892;DHT22;10108;50.142;8.724;2022-12-24T08:56:43;10.30;99.90
19892;DHT22;10108;50.142;8.724;2022-12-24T08:59:10;10.30;99.90
19892;DHT22;10108;50.142;8.724;2022-12-24T09:01:37;10.20;99.90
19892;DHT22;10108;50.142;8.724;2022-12-24T09:04:03;10.10;99.90
19892;DHT22;10108;50.142;8.724;2022-12-24T09:06:31;10.10;99.90
19892;DHT22;10108;50.142;8.724;2022-12-24T09:08:57;10.00;99.90
19892;DHT22;10108;50.142;8.724;2022-12-24T09:11:24;10.00;1.00
19892;DHT22;10108;50.142;8.724;2022-12-24T09:13:50;10.00;1.00
19892;DHT22;10108;50.142;8.724;2022-12-24T09:16:16;10.00;1.00
19892;DHT22;10108;50.142;8.724;2022-12-24T09:18:42;10.00;1.00
19892;DHT22;10108;50.142;8.724;2022-12-24T09:21:17;10.00;1.00
19892;DHT22;10108;50.142;8.724;2022-12-24T09:23:45;10.00;1.00
19892;DHT22;10108;50.142;8.724;2022-12-24T09:26:15;9.90;1.00
19892;DHT22;10108;50.142;8.724;2022-12-24T09:28:41;9.90;1.00
19892;DHT22;10108;50.142;8.724;2022-12-24T09:31:09;10.00;1.00
19892;DHT22;10108;50.142;8.724;2022-12-24T09:33:37;10.00;1.00
19892;DHT22;10108;50.142;8.724;2022-12-24T09:36:05;10.00;15.70
19892;DHT22;10108;50.142;8.724;2022-12-24T09:38:32;10.00;34.80
19892;DHT22;10108;50.142;8.724;2022-12-24T09:40:58;10.00;56.50
19892;DHT22;10108;50.142;8.724;2022-12-24T09:43:27;10.10;72.00
19892;DHT22;10108;50.142;8.724;2022-12-24T09:46:00;10.00;79.10
19892;DHT22;10108;50.142;8.724;2022-12-24T09:48:31;10.00;87.20
19892;DHT22;10108;50.142;8.724;2022-12-24T09:51:20;10.00;95.90
19892;DHT22;10108;50.142;8.724;2022-12-24T09:54:00;9.90;99.90
19892;DHT22;10108;50.142;8.724;2022-12-24T09:56:34;9.90;99.90
19892;DHT22;10108;50.142;8.724;2022-12-24T09:59:05;9.90;99.90
19892;DHT22;10108;50.142;8.724;2022-12-24T10:01:33;9.90;99.90
19892;DHT22;10108;50.142;8.724;2022-12-24T10:04:03;9.90;99.90
19892;DHT22;10108;50.142;8.724;2022-12-24T10:06:58;9.90;99.90
19892;DHT22;10108;50.142;8.724;2022-12-24T10:12:40;9.90;99.90
19892;DHT22;10108;50.142;8.724;2022-12-24T10:15:15;9.90;99.90
19892;DHT22;10108;50.142;8.724;2022-12-24T10:21:19;9.90;99.90
19892;DHT22;10108;50.142;8.724;2022-12-24T10:24:27;9.80;99.90
19892;DHT22;10108;50.142;8.724;2022-12-24T10:26:54;9.80;99.90
19892;DHT22;10108;50.142;8.724;2022-12-24T10:29:26;9.80;99.90
19892;DHT22;10108;50.142;8.724;2022-12-24T10:34:42;9.80;99.90
19892;DHT22;10108;50.142;8.724;2022-12-24T10:37:18;9.80;99.90
19892;DHT22;10108;50.142;8.724;2022-12-24T10:39:45;9.80;99.90
19892;DHT22;10108;50.142;8.724;2022-12-24T10:42:12;9.90;99.90
19892;DHT22;10108;50.142;8.724;2022-12-24T10:44:39;9.90;99.90
19892;DHT22;10108;50.142;8.724;2022-12-24T10:47:07;9.90;99.90
19892;DHT22;10108;50.142;8.724;2022-12-24T10:52:14;9.90;99.90
19892;DHT22;10108;50.142;8.724;2022-12-24T10:55:12;10.00;99.90
19892;DHT22;10108;50.142;8.724;2022-12-24T10:57:55;10.00;99.90
19892;DHT22;10108;50.142;8.724;2022-12-24T11:00:23;10.10;99.90
19892;DHT22;10108;50.142;8.724;2022-12-24T11:03:06;10.00;99.90
19892;DHT22;10108;50.142;8.724;2022-12-24T11:05:34;10.10;99.90
19892;DHT22;10108;50.142;8.724;2022-12-24T11:08:03;10.10;99.90
19892;DHT22;10108;50.142;8.724;2022-12-24T11:10:30;10.20;99.90
19892;DHT22;10108;50.142;8.724;2022-12-24T11:12:57;10.30;99.90
19892;DHT22;10108;50.142;8.724;2022-12-24T11:15:30;10.40;99.90
19892;DHT22;10108;50.142;8.724;2022-12-24T11:18:00;10.40;99.90
19892;DHT22;10108;50.142;8.724;2022-12-24T11:20:31;10.40;99.90
19892;DHT22;10108;50.142;8.724;2022-12-24T11:22:59;10.40;92.40
19892;DHT22;10108;50.142;8.724;2022-12-24T11:25:28;10.40;54.90
19892;DHT22;10108;50.142;8.724;2022-12-24T11:28:18;10.50;14.50
19892;DHT22;10108;50.142;8.724;2022-12-24T11:30:56;10.50;1.00
19892;DHT22;10108;50.142;8.724;2022-12-24T11:33:22;10.50;1.00
19892;DHT22;10108;50.142;8.724;2022-12-24T11:36:02;10.50;1.00
19892;DHT22;10108;50.142;8.724;2022-12-24T11:38:31;10.60;1.00
19892;DHT22;10108;50.142;8.724;2022-12-24T11:41:07;10.60;1.00
19892;DHT22;10108;50.142;8.724;2022-12-24T11:43:37;10.70;1.00
19892;DHT22;10108;50.142;8.724;2022-12-24T11:46:19;10.80;1.00
19892;DHT22;10108;50.142;8.724;2022-12-24T11:48:46;10.80;1.00
19892;DHT22;10108;50.142;8.724;2022-12-24T11:53:50;10.90;1.00
19892;DHT22;10108;50.142;8.724;2022-12-24T11:56:48;10.90;1.00
19892;DHT22;10108;50.142;8.724;2022-12-24T11:59:25;10.90;1.00
19892;DHT22;10108;50.142;8.724;2022-12-24T12:02:01;10.90;1.00
19892;DHT22;10108;50.142;8.724;2022-12-24T12:04:35;11.00;1.00
19892;DHT22;10108;50.142;8.724;2022-12-24T12:07:12;11.00;1.00
19892;DHT22;10108;50.142;8.724;2022-12-24T12:09:46;10.90;99.90
19892;DHT22;10108;50.142;8.724;2022-12-24T12:12:17;11.00;99.90
19892;DHT22;10108;50.142;8.724;2022-12-24T12:14:52;10.90;99.90
19892;DHT22;10108;50.142;8.724;2022-12-24T12:17:32;11.00;99.90
19892;DHT22;10108;50.142;8.724;2022-12-24T12:20:14;11.00;99.90
19892;DHT22;10108;50.142;8.724;2022-12-24T12:25:31;10.90;99.90
19892;DHT22;10108;50.142;8.724;2022-12-24T12:28:01;10.80;99.90
19892;DHT22;10108;50.142;8.724;2022-12-24T12:30:28;10.80;99.90
19892;DHT22;10108;50.142;8.724;2022-12-24T12:33:24;10.70;99.90
19892;DHT22;10108;50.142;8.724;2022-12-24T12:35:54;10.70;99.90
19892;DHT22;10108;50.142;8.724;2022-12-24T12:38:25;10.70;1.00
19892;DHT22;10108;50.142;8.724;2022-12-24T12:47:03;10.70;99.90
19892;DHT22;10108;50.142;8.724;2022-12-24T12:55:04;10.70;1.00
19892;DHT22;10108;50.142;8.724;2022-12-24T12:57:35;10.70;1.00
19892;DHT22;10108;50.142;8.724;2022-12-24T13:00:06;10.70;1.00
19892;DHT22;10108;50.142;8.724;2022-12-24T13:02:54;10.70;1.00
19892;DHT22;10108;50.142;8.724;2022-12-24T13:14:32;10.70;99.90
19892;DHT22;10108;50.142;8.724;2022-12-24T13:22:35;10.80;99.90
19892;DHT22;10108;50.142;8.724;2022-12-24T13:25:02;10.80;99.90
19892;DHT22;10108;50.142;8.724;2022-12-24T13:27:30;10.70;99.90
19892;DHT22;10108;50.142;8.724;2022-12-24T13:29:59;10.70;99.90
19892;DHT22;10108;50.142;8.724;2022-12-24T13:35:03;10.70;99.90
19892;DHT22;10108;50.142;8.724;2022-12-24T13:37:48;10.70;99.90
19892;DHT22;10108;50.142;8.724;2022-12-24T13:40:26;10.70;99.90
19892;DHT22;10108;50.142;8.724;2022-12-24T13:50:50;10.70;99.90
19892;DHT22;10108;50.142;8.724;2022-12-24T13:53:26;10.70;99.90
19892;DHT22;10108;50.142;8.724;2022-12-24T13:56:30;10.60;99.90
19892;DHT22;10108;50.142;8.724;2022-12-24T13:59:16;10.60;99.90
19892;DHT22;10108;50.142;8.724;2022-12-24T14:01:45;10.60;99.90
19892;DHT22;10108;50.142;8.724;2022-12-24T14:04:26;10.50;99.90
19892;DHT22;10108;50.142;8.724;2022-12-24T14:06:53;10.50;99.90
19892;DHT22;10108;50.142;8.724;2022-12-24T14:09:22;10.50;99.90
19892;DHT22;10108;50.142;8.724;2022-12-24T14:17:09;10.50;99.90
19892;DHT22;10108;50.142;8.724;2022-12-24T14:19:42;10.50;99.90
19892;DHT22;10108;50.142;8.724;2022-12-24T14:22:33;10.40;99.90
19892;DHT22;10108;50.142;8.724;2022-12-24T14:25:13;10.40;99.90
19892;DHT22;10108;50.142;8.724;2022-12-24T14:30:19;10.40;99.90
19892;DHT22;10108;50.142;8.724;2022-12-24T14:32:47;10.40;99.90
19892;DHT22;10108;50.142;8.724;2022-12-24T14:37:44;10.40;99.90
19892;DHT22;10108;50.142;8.724;2022-12-24T14:40:24;10.50;99.90
19892;DHT22;10108;50.142;8.724;2022-12-24T14:43:12;10.50;99.90
19892;DHT22;10108;50.142;8.724;2022-12-24T14:45:55;10.50;99.90
19892;DHT22;10108;50.142;8.724;2022-12-24T14:48:29;10.50;1.00
19892;DHT22;10108;50.142;8.724;2022-12-24T14:56:31;10.40;1.00
19892;DHT22;10108;50.142;8.724;2022-12-24T14:58:57;10.40;99.90
19892;DHT22;10108;50.142;8.724;2022-12-24T15:01:31;10.40;99.90
19892;DHT22;10108;50.142;8.724;2022-12-24T15:04:19;10.40;99.90
19892;DHT22;10108;50.142;8.724;2022-12-24T15:06:47;10.40;99.90
19892;DHT22;10108;50.142;8.724;2022-12-24T15:09:28;10.40;99.90
19892;DHT22;10108;50.142;8.724;2022-12-24T15:11:57;10.30;99.90
19892;DHT22;10108;50.142;8.724;2022-12-24T15:14:26;10.30;99.90
19892;DHT22;10108;50.142;8.724;2022-12-24T15:16:58;10.30;99.90
19892;DHT22;10108;50.142;8.724;2022-12-24T15:19:31;10.30;99.90
19892;DHT22;10108;50.142;8.724;2022-12-24T15:21:58;10.20;99.90
19892;DHT22;10108;50.142;8.724;2022-12-24T15:24:31;10.20;99.90
19892;DHT22;10108;50.142;8.724;2022-12-24T15:26:58;10.20;99.90
19892;DHT22;10108;50.142;8.724;2022-12-24T15:29:27;10.20;99.90
19892;DHT22;10108;50.142;8.724;2022-12-24T15:31:59;10.20;99.90
19892;DHT22;10108;50.142;8.724;2022-12-24T15:34:35;10.20;99.90
19892;DHT22;10108;50.142;8.724;2022-12-24T15:39:37;10.10;99.90
19892;DHT22;10108;50.142;8.724;2022-12-24T15:42:05;10.10;99.90
19892;DHT22;10108;50.142;8.724;2022-12-24T15:44:55;10.10;99.90
19892;DHT22;10108;50.142;8.724;2022-12-24T15:47:30;10.10;99.90
19892;DHT22;10108;50.142;8.724;2022-12-24T15:50:24;10.10;99.90
19892;DHT22;10108;50.142;8.724;2022-12-24T15:52:53;10.10;99.90
19892;DHT22;10108;50.142;8.724;2022-12-24T15:55:25;10.10;99.90
19892;DHT22;10108;50.142;8.724;2022-12-24T15:57:51;10.10;99.90
19892;DHT22;10108;50.142;8.724;2022-12-24T16:00:22;10.10;99.90
19892;DHT22;10108;50.142;8.724;2022-12-24T16:02:49;10.10;99.90
19892;DHT22;10108;50.142;8.724;2022-12-24T16:05:28;10.10;99.90
19892;DHT22;10108;50.142;8.724;2022-12-24T16:08:21;10.10;99.90
19892;DHT22;10108;50.142;8.724;2022-12-24T16:11:14;10.10;99.90
19892;DHT22;10108;50.142;8.724;2022-12-24T16:13:43;10.10;99.90
19892;DHT22;10108;50.142;8.724;2022-12-24T16:16:18;10.10;99.90
19892;DHT22;10108;50.142;8.724;2022-12-24T16:18:51;10.10;99.90
19892;DHT22;10108;50.142;8.724;2022-12-24T16:21:22;10.00;99.90
19892;DHT22;10108;50.142;8.724;2022-12-24T16:23:52;10.00;99.90
19892;DHT22;10108;50.142;8.724;2022-12-24T16:26:19;9.90;99.90
19892;DHT22;10108;50.142;8.724;2022-12-24T16:28:45;9.90;99.90
19892;DHT22;10108;50.142;8.724;2022-12-24T16:31:17;9.90;99.90
19892;DHT22;10108;50.142;8.724;2022-12-24T16:33:44;9.90;99.90
19892;DHT22;10108;50.142;8.724;2022-12-24T16:36:11;9.90;99.90
19892;DHT22;10108;50.142;8.724;2022-12-24T16:38:38;9.90;99.90
19892;DHT22;10108;50.142;8.724;2022-12-24T16:41:22;9.90;99.90
19892;DHT22;10108;50.142;8.724;2022-12-24T16:43:48;9.90;99.90
19892;DHT22;10108;50.142;8.724;2022-12-24T16:46:15;9.80;99.90
19892;DHT22;10108;50.142;8.724;2022-12-24T16:48:43;9.70;99.90
19892;DHT22;10108;50.142;8.724;2022-12-24T16:51:10;9.70;99.90
19892;DHT22;10108;50.142;8.724;2022-12-24T16:53:36;9.70;99.90
19892;DHT22;10108;50.142;8.724;2022-12-24T16:56:03;9.60;99.90
19892;DHT22;10108;50.142;8.724;2022-12-24T16:58:29;9.60;99.90
19892;DHT22;10108;50.142;8.724;2022-12-24T17:00:55;9.60;99.90
19892;DHT22;10108;50.142;8.724;2022-12-24T17:03:22;9.60;99.90
19892;DHT22;10108;50.142;8.724;2022-12-24T17:05:48;9.60;99.90
19892;DHT22;10108;50.142;8.724;2022-12-24T17:08:14;9.60;99.90
19892;DHT22;10108;50.142;8.724;2022-12-24T17:10:41;9.60;99.90
19892;DHT22;10108;50.142;8.724;2022-12-24T17:13:14;9.60;99.90
19892;DHT22;10108;50.142;8.724;2022-12-24T17:15:41;9.60;99.90
19892;DHT22;10108;50.142;8.724;2022-12-24T17:18:07;9.50;99.90
19892;DHT22;10108;50.142;8.724;2022-12-24T17:20:33;9.50;99.90
19892;DHT22;10108;50.142;8.724;2022-12-24T17:22:59;9.50;99.90
19892;DHT22;10108;50.142;8.724;2022-12-24T17:25:25;9.50;99.90
19892;DHT22;10108;50.142;8.724;2022-12-24T17:27:51;9.40;99.90
19892;DHT22;10108;50.142;8.724;2022-12-24T17:30:17;9.40;99.90